Time;durP1;ratioP1;P1;durP2;ratioP2;P2;SDS_P1;SDS_P2;PMS_P1;PMS_P2;Temp;Humidity;BMP_temperature;BMP_pressure;BME280_temperature;BME280_humidity;BME280_pressure;Samples;Min_cycle;Max_cycle;Signal;HPM_P1;HPM_P2
2022/07/11 00:02:07;;;;;;;3.30;2.37;;;15.90;99.90;;;;;;5032286;28;20880;-85
2022/07/11 00:04:34;;;;;;;4.20;2.70;;;15.90;99.90;;;;;;5033683;28;20451;-84
2022/07/11 00:07:01;;;;;;;2.97;2.50;;;15.90;99.90;;;;;;5037438;28;20462;-84
2022/07/11 00:09:27;;;;;;;3.50;2.57;;;15.90;99.90;;;;;;5030573;28;20467;-84
2022/07/11 00:11:53;;;;;;;2.73;2.50;;;15.90;99.90;;;;;;5027467;28;20435;-85
2022/07/11 00:14:19;;;;;;;2.23;2.03;;;15.90;99.90;;;;;;5025559;28;20448;-84
2022/07/11 00:16:45;;;;;;;3.63;2.63;;;15.80;99.90;;;;;;5028496;28;20201;-85
2022/07/11 00:19:11;;;;;;;2.60;2.37;;;15.80;99.90;;;;;;5024962;28;20485;-86
2022/07/11 00:21:37;;;;;;;2.97;2.10;;;15.80;99.90;;;;;;5027285;28;20821;-84
2022/07/11 00:24:03;;;;;;;3.57;2.50;;;15.70;99.90;;;;;;5028812;28;21169;-84
2022/07/11 00:26:29;;;;;;;5.47;2.27;;;15.80;99.90;;;;;;5038663;28;20196;-85
2022/07/11 00:28:55;;;;;;;2.80;2.07;;;15.80;99.90;;;;;;5031429;28;20689;-84
2022/07/11 00:31:21;;;;;;;3.03;2.67;;;15.80;99.90;;;;;;5027374;28;20457;-83
2022/07/11 00:33:46;;;;;;;2.50;2.30;;;15.90;99.90;;;;;;5035903;28;20428;-83
2022/07/11 00:36:12;;;;;;;4.37;2.20;;;15.90;99.90;;;;;;5046500;28;20200;-85
2022/07/11 00:38:38;;;;;;;2.20;1.90;;;16.00;99.90;;;;;;5054198;28;20199;-84
2022/07/11 00:41:04;;;;;;;5.43;2.40;;;16.10;99.90;;;;;;5034128;28;20913;-84
2022/07/11 00:43:31;;;;;;;2.77;2.03;;;16.10;99.90;;;;;;5029414;28;20188;-85
2022/07/11 00:45:57;;;;;;;2.30;2.10;;;16.20;99.90;;;;;;5034325;28;20471;-85
2022/07/11 00:48:22;;;;;;;9.40;2.67;;;16.10;99.90;;;;;;5037793;28;21000;-85
2022/07/11 00:50:48;;;;;;;3.70;2.30;;;16.10;99.90;;;;;;5035059;28;20193;-85
2022/07/11 00:53:14;;;;;;;2.87;2.60;;;16.10;99.90;;;;;;5039721;28;20549;-85
2022/07/11 00:55:40;;;;;;;4.00;2.30;;;16.10;99.90;;;;;;5041738;28;20236;-85
2022/07/11 00:58:06;;;;;;;3.10;2.13;;;16.10;99.90;;;;;;5048419;28;20487;-84
2022/07/11 01:00:33;;;;;;;4.17;2.90;;;16.10;99.90;;;;;;5055577;28;20534;-84
2022/07/11 01:02:59;;;;;;;5.53;3.00;;;16.00;99.90;;;;;;5033849;28;20197;-84
2022/07/11 01:05:25;;;;;;;5.73;2.90;;;16.00;99.90;;;;;;5032719;28;20452;-84
2022/07/11 01:07:50;;;;;;;3.37;3.07;;;16.00;99.90;;;;;;5038945;28;20186;-85
2022/07/11 01:10:16;;;;;;;3.40;2.97;;;15.90;99.90;;;;;;5034414;28;20181;-83
2022/07/11 01:12:41;;;;;;;2.93;2.50;;;15.90;99.90;;;;;;5014037;28;20185;-85
2022/07/11 01:15:07;;;;;;;3.10;2.70;;;15.90;99.90;;;;;;5017859;28;20312;-84
2022/07/11 01:17:33;;;;;;;3.20;2.37;;;15.90;99.90;;;;;;5014810;28;20215;-85
2022/07/11 01:20:00;;;;;;;7.17;2.93;;;15.90;99.90;;;;;;5018034;28;21280;-85
2022/07/11 01:22:28;;;;;;;5.33;2.97;;;15.90;99.90;;;;;;5014781;28;20181;-85
2022/07/11 01:24:54;;;;;;;3.37;2.50;;;15.70;99.90;;;;;;5020733;28;20531;-85
2022/07/11 01:27:22;;;;;;;3.03;2.43;;;15.90;99.90;;;;;;5033538;28;20459;-85
2022/07/11 01:29:47;;;;;;;3.17;2.60;;;16.00;99.90;;;;;;5032016;28;20435;-85
2022/07/11 01:32:13;;;;;;;4.17;2.93;;;18.90;99.90;;;;;;5037328;28;20432;-84
2022/07/11 01:34:39;;;;;;;4.40;2.90;;;15.90;99.90;;;;;;5029792;28;20198;-84
2022/07/11 01:37:04;;;;;;;5.77;2.67;;;16.00;99.90;;;;;;5019415;28;20205;-85
2022/07/11 01:39:30;;;;;;;4.40;2.80;;;16.00;99.90;;;;;;5035052;28;20177;-85
2022/07/11 01:41:58;;;;;;;2.37;1.97;;;16.00;99.90;;;;;;5029494;28;20260;-85
2022/07/11 01:44:24;;;;;;;3.20;2.40;;;16.00;99.90;;;;;;5025393;28;20332;-85
2022/07/11 01:46:50;;;;;;;2.80;2.53;;;16.00;99.90;;;;;;5033472;28;20472;-85
2022/07/11 01:49:17;;;;;;;3.27;2.40;;;16.00;99.90;;;;;;5026304;28;20462;-85
2022/07/11 01:51:42;;;;;;;4.53;3.20;;;16.00;99.90;;;;;;5036636;28;20205;-85
2022/07/11 01:54:08;;;;;;;5.50;3.17;;;16.00;99.90;;;;;;5026541;28;21527;-85
2022/07/11 01:56:34;;;;;;;2.40;2.20;;;15.90;99.90;;;;;;5042457;28;21210;-86
2022/07/11 01:59:01;;;;;;;8.17;3.33;;;15.90;99.90;;;;;;5034460;28;20178;-85
2022/07/11 02:01:26;;;;;;;3.30;2.90;;;15.90;99.90;;;;;;5034182;28;20178;-85
2022/07/11 02:03:52;;;;;;;2.83;2.50;;;15.90;99.90;;;;;;5034514;28;20450;-85
2022/07/11 02:06:18;;;;;;;5.00;2.60;;;15.80;99.90;;;;;;5032015;28;20208;-85
2022/07/11 02:08:44;;;;;;;2.90;2.63;;;15.80;99.90;;;;;;5055639;22;21211;-80
2022/07/11 02:11:09;;;;;;;3.63;3.27;;;15.80;99.90;;;;;;5016130;28;20190;-78
2022/07/11 02:13:35;;;;;;;3.33;2.70;;;15.80;99.90;;;;;;5023133;28;20288;-83
2022/07/11 02:16:02;;;;;;;2.60;2.27;;;15.80;99.90;;;;;;5016640;28;20685;-81
2022/07/11 02:18:28;;;;;;;3.03;2.53;;;15.80;99.90;;;;;;5017095;28;20212;-80
2022/07/11 02:20:53;;;;;;;2.63;2.43;;;15.80;99.90;;;;;;5020622;28;20420;-80
2022/07/11 02:23:19;;;;;;;3.40;2.50;;;15.80;99.90;;;;;;5019318;28;20428;-80
2022/07/11 02:25:45;;;;;;;3.43;2.73;;;15.80;99.90;;;;;;5018337;28;20270;-79
2022/07/11 02:28:12;;;;;;;3.77;3.17;;;15.90;99.90;;;;;;5017636;28;21189;-82
2022/07/11 02:30:42;;;;;;;4.60;2.60;;;15.80;99.90;;;;;;5020935;28;22246;-80
2022/07/11 02:33:10;;;;;;;2.73;2.43;;;15.80;99.90;;;;;;5025082;28;20438;-80
2022/07/11 02:35:37;;;;;;;6.80;3.23;;;15.80;99.90;;;;;;5019585;28;20981;-80
2022/07/11 02:38:02;;;;;;;4.67;3.60;;;15.90;99.90;;;;;;5016316;28;20453;-80
2022/07/11 02:40:28;;;;;;;7.70;4.30;;;15.90;99.90;;;;;;5013334;28;20932;-79
2022/07/11 02:42:55;;;;;;;3.40;3.10;;;15.90;99.90;;;;;;5015589;28;20213;-79
2022/07/11 02:45:21;;;;;;;4.67;3.80;;;15.80;99.90;;;;;;5017120;28;20297;-79
2022/07/11 02:47:46;;;;;;;5.30;3.37;;;15.80;99.90;;;;;;5017603;28;20544;-79
2022/07/11 02:50:13;;;;;;;5.10;3.93;;;15.80;99.90;;;;;;5018701;28;20189;-81
2022/07/11 02:52:40;;;;;;;4.17;3.57;;;15.80;99.90;;;;;;5015924;28;20274;-80
2022/07/11 02:55:08;;;;;;;6.13;3.80;;;15.80;99.90;;;;;;5015891;28;21771;-81
2022/07/11 02:57:34;;;;;;;7.07;3.83;;;15.80;99.90;;;;;;5015791;28;20547;-81
2022/07/11 03:00:01;;;;;;;7.47;3.93;;;15.80;99.90;;;;;;5023804;28;20441;-80
2022/07/11 03:02:27;;;;;;;4.80;4.10;;;15.70;99.90;;;;;;5021805;28;20445;-81
2022/07/11 03:04:52;;;;;;;6.40;3.53;;;15.70;99.90;;;;;;5018897;28;20468;-83
2022/07/11 03:07:18;;;;;;;5.73;4.23;;;15.80;99.90;;;;;;5019990;28;20697;-82
2022/07/11 03:09:43;;;;;;;5.00;4.07;;;15.80;99.90;;;;;;5017833;28;20197;-80
2022/07/11 03:12:09;;;;;;;4.13;3.73;;;15.80;99.90;;;;;;5019136;28;20269;-79
2022/07/11 03:14:34;;;;;;;6.00;3.87;;;15.90;99.90;;;;;;5024927;28;20215;-82
2022/07/11 03:17:00;;;;;;;4.33;3.63;;;15.90;99.90;;;;;;5015339;28;20199;-82
2022/07/11 03:19:26;;;;;;;5.43;4.30;;;15.80;99.90;;;;;;5014191;28;20190;-80
2022/07/11 03:21:52;;;;;;;5.30;4.30;;;15.90;99.90;;;;;;5016768;28;20677;-82
2022/07/11 03:24:17;;;;;;;5.33;4.83;;;15.90;99.90;;;;;;5014721;28;20848;-77
2022/07/11 03:26:43;;;;;;;5.10;3.77;;;15.90;99.90;;;;;;5023850;28;20437;-82
2022/07/11 03:29:08;;;;;;;4.27;3.57;;;15.90;99.90;;;;;;5013284;28;20175;-82
2022/07/11 03:31:34;;;;;;;5.37;3.87;;;15.90;99.90;;;;;;5015522;28;20182;-79
2022/07/11 03:34:00;;;;;;;3.60;3.30;;;15.90;99.90;;;;;;5017925;28;20197;-78
2022/07/11 03:36:26;;;;;;;5.03;3.80;;;15.90;99.90;;;;;;5025639;28;20445;-82
2022/07/11 03:38:51;;;;;;;3.63;3.30;;;15.90;99.90;;;;;;5023049;28;20754;-84
2022/07/11 03:41:17;;;;;;;6.17;4.07;;;15.90;99.90;;;;;;5017690;28;20795;-82
2022/07/11 03:43:43;;;;;;;6.93;4.30;;;15.90;99.90;;;;;;5018435;28;20186;-82
2022/07/11 03:46:08;;;;;;;4.30;3.67;;;15.90;99.90;;;;;;5019891;23;20233;-86
2022/07/11 03:48:34;;;;;;;3.73;3.30;;;16.00;99.90;;;;;;5032107;28;20293;-87
2022/07/11 03:50:59;;;;;;;4.37;3.80;;;16.00;99.90;;;;;;5020131;28;20325;-87
2022/07/11 03:53:25;;;;;;;5.90;4.03;;;16.10;99.90;;;;;;5017278;28;20190;-86
2022/07/11 03:55:51;;;;;;;5.83;3.80;;;;;;;;;;5019983;28;20190;-83
2022/07/11 03:58:16;;;;;;;6.80;3.70;;;16.20;99.90;;;;;;5011004;28;20210;-85
2022/07/11 04:00:42;;;;;;;5.00;4.20;;;;;;;;;;5012541;28;21019;-85
2022/07/11 04:03:08;;;;;;;5.27;4.13;;;;;;;;;;5011919;28;20179;-85
2022/07/11 04:05:34;;;;;;;6.60;4.17;;;;;;;;;;5021197;28;20445;-85
2022/07/11 04:08:00;;;;;;;4.40;3.63;;;16.50;99.90;;;;;;5012482;28;20440;-88
2022/07/11 04:10:26;;;;;;;5.13;4.10;;;;;;;;;;5006824;28;20460;-85
2022/07/11 04:12:51;;;;;;;4.30;3.90;;;16.70;99.90;;;;;;5017950;28;20335;-85
2022/07/11 04:15:17;;;;;;;4.20;3.50;;;16.70;99.90;;;;;;5016471;28;21563;-85
2022/07/11 04:17:42;;;;;;;6.80;4.13;;;16.70;99.90;;;;;;5009290;28;20217;-84
2022/07/11 04:20:08;;;;;;;5.27;3.73;;;16.70;99.90;;;;;;5000492;28;20200;-85
2022/07/11 04:22:34;;;;;;;4.40;3.57;;;16.70;99.90;;;;;;5010180;28;20196;-86
2022/07/11 04:24:59;;;;;;;5.10;3.30;;;16.80;99.90;;;;;;5004353;28;20937;-84
2022/07/11 04:27:25;;;;;;;6.50;4.20;;;16.90;99.90;;;;;;4993627;28;20223;-84
2022/07/11 04:29:51;;;;;;;5.10;4.03;;;17.00;99.90;;;;;;4999570;28;20371;-83
2022/07/11 04:32:17;;;;;;;4.50;3.43;;;17.00;99.90;;;;;;5006828;28;20182;-85
2022/07/11 04:34:42;;;;;;;6.10;3.30;;;17.10;99.90;;;;;;5004814;28;20438;-83
2022/07/11 04:37:08;;;;;;;5.27;3.30;;;17.20;99.90;;;;;;5007151;28;20198;-84
2022/07/11 04:39:33;;;;;;;7.17;4.67;;;17.20;99.90;;;;;;5008886;28;20303;-85
2022/07/11 04:42:00;;;;;;;5.07;4.30;;;17.40;99.90;;;;;;5001311;28;20193;-85
2022/07/11 04:44:27;;;;;;;201.87;21.93;;;17.40;99.90;;;;;;5008276;28;20931;-83
2022/07/11 04:46:52;;;;;;;2.20;2.00;;;17.60;99.90;;;;;;5010816;28;20439;-85
2022/07/11 04:49:18;;;;;;;2.10;1.73;;;17.60;99.90;;;;;;5007023;28;20767;-84
2022/07/11 04:51:44;;;;;;;5.93;2.50;;;17.70;99.90;;;;;;5007087;28;20182;-82
2022/07/11 04:54:10;;;;;;;4.00;2.97;;;17.50;99.90;;;;;;4999479;28;20849;-84
2022/07/11 04:56:35;;;;;;;4.90;2.93;;;17.50;99.90;;;;;;4996938;28;20452;-84
2022/07/11 04:59:01;;;;;;;4.17;3.23;;;17.80;99.90;;;;;;4993883;28;20268;-83
2022/07/11 05:01:28;;;;;;;3.83;3.00;;;20.20;99.90;;;;;;4993742;28;20235;-85
2022/07/11 05:03:54;;;;;;;6.33;3.03;;;17.90;99.90;;;;;;5007024;28;20203;-86
2022/07/11 05:06:20;;;;;;;4.63;4.03;;;18.10;99.90;;;;;;5003342;28;20437;-86
2022/07/11 05:08:45;;;;;;;4.60;3.50;;;18.10;99.90;;;;;;5008169;28;20686;-83
2022/07/11 05:11:11;;;;;;;5.23;3.13;;;18.20;99.90;;;;;;5009577;28;20185;-85
2022/07/11 05:13:37;;;;;;;2.43;1.93;;;18.20;99.90;;;;;;5007792;28;20257;-85
2022/07/11 05:16:03;;;;;;;5.30;3.20;;;18.20;99.90;;;;;;5010406;28;20228;-85
2022/07/11 05:18:28;;;;;;;4.43;3.00;;;18.00;99.90;;;;;;5015202;28;20477;-87
2022/07/11 05:20:55;;;;;;;5.67;3.83;;;18.00;99.90;;;;;;5011415;28;20534;-86
2022/07/11 05:23:20;;;;;;;3.73;3.10;;;18.00;99.90;;;;;;5013798;28;20228;-85
2022/07/11 05:25:46;;;;;;;3.77;2.90;;;18.10;99.90;;;;;;5017026;28;20437;-84
2022/07/11 05:28:11;;;;;;;2.87;2.57;;;18.50;99.90;;;;;;5009287;28;20235;-84
2022/07/11 05:30:37;;;;;;;4.40;3.00;;;18.90;99.90;;;;;;5022721;28;20747;-85
2022/07/11 05:33:02;;;;;;;5.30;2.83;;;18.90;99.90;;;;;;5010440;28;20646;-84
2022/07/11 05:35:28;;;;;;;2.93;2.73;;;19.20;99.90;;;;;;5011108;28;20186;-83
2022/07/11 05:37:53;;;;;;;5.00;2.70;;;19.50;99.90;;;;;;5011691;28;20209;-85
2022/07/11 05:40:20;;;;;;;2.37;2.17;;;19.90;99.90;;;;;;5011576;28;20198;-85
2022/07/11 05:42:45;;;;;;;3.93;2.57;;;19.90;99.90;;;;;;5010902;28;20249;-84
2022/07/11 05:45:11;;;;;;;2.70;1.77;;;19.80;99.90;;;;;;5012031;28;20587;-86
2022/07/11 05:47:37;;;;;;;2.63;2.43;;;20.20;99.90;;;;;;5021310;28;20185;-85
2022/07/11 05:50:03;;;;;;;3.40;2.30;;;21.60;99.90;;;;;;5018463;28;20202;-84
2022/07/11 05:52:28;;;;;;;3.53;2.77;;;20.60;99.90;;;;;;5014174;28;20185;-85
2022/07/11 05:54:54;;;;;;;2.80;2.60;;;20.60;99.90;;;;;;5014251;28;20486;-86
2022/07/11 05:57:20;;;;;;;4.83;3.23;;;21.10;99.90;;;;;;5022122;28;20582;-83
2022/07/11 05:59:46;;;;;;;3.97;2.60;;;;;;;;;;5023212;28;20206;-85
2022/07/11 06:02:12;;;;;;;3.97;3.17;;;21.70;99.90;;;;;;5028902;28;20212;-87
2022/07/11 06:04:37;;;;;;;3.27;2.57;;;21.60;99.90;;;;;;5020699;28;20524;-87
2022/07/11 06:07:03;;;;;;;2.43;2.10;;;21.20;99.90;;;;;;5020177;28;20555;-85
2022/07/11 06:09:29;;;;;;;2.77;2.57;;;20.80;99.90;;;;;;5014910;28;20225;-85
2022/07/11 06:11:56;;;;;;;6.53;2.17;;;20.80;99.90;;;;;;5025985;28;20189;-85
2022/07/11 06:14:23;;;;;;;2.50;1.83;;;21.30;99.90;;;;;;5014103;28;20836;-85
2022/07/11 06:16:49;;;;;;;9.40;2.43;;;22.00;99.90;;;;;;5014164;28;20547;-86
2022/07/11 06:19:15;;;;;;;2.87;2.30;;;22.30;99.90;;;;;;5018310;28;20531;-86
2022/07/11 06:21:40;;;;;;;2.87;2.30;;;22.30;99.90;;;;;;5024018;28;20441;-85
2022/07/11 06:24:06;;;;;;;1.40;1.20;;;22.40;99.90;;;;;;5022300;28;20171;-85
2022/07/11 06:26:32;;;;;;;2.33;1.83;;;22.80;99.90;;;;;;5014272;28;20197;-84
2022/07/11 06:28:57;;;;;;;2.67;2.20;;;22.90;99.90;;;;;;5009941;28;20202;-84
2022/07/11 06:31:23;;;;;;;2.87;2.57;;;22.70;99.90;;;;;;5011384;28;20251;-84
2022/07/11 06:33:54;;;;;;;7.20;2.60;;;;;;;;;;5018661;28;20216;-84
2022/07/11 06:36:22;;;;;;;3.60;2.10;;;22.40;99.90;;;;;;5015248;28;20185;-84
2022/07/11 06:38:48;;;;;;;2.03;1.83;;;22.00;99.90;;;;;;5017170;28;20476;-83
2022/07/11 06:41:14;;;;;;;4.73;2.33;;;22.70;99.90;;;;;;5015725;28;20425;-85
2022/07/11 06:43:40;;;;;;;2.73;2.20;;;22.10;99.90;;;;;;5005874;28;20437;-83
2022/07/11 06:46:05;;;;;;;2.50;2.17;;;22.30;99.90;;;;;;5006897;28;20606;-83
2022/07/11 06:48:31;;;;;;;2.23;2.03;;;22.20;99.90;;;;;;5026544;28;20185;-85
2022/07/11 06:50:56;;;;;;;7.50;2.33;;;22.20;99.90;;;;;;5005384;28;20254;-86
2022/07/11 06:53:22;;;;;;;2.17;1.60;;;22.00;99.90;;;;;;4999042;28;21059;-84
2022/07/11 06:55:48;;;;;;;3.17;1.80;;;21.70;99.90;;;;;;5012460;28;20178;-81
2022/07/11 06:58:31;;;;;;;4.67;2.57;;;21.40;99.90;;;;;;5009521;28;20576;-84
2022/07/11 07:01:03;;;;;;;1.93;1.83;;;21.70;99.90;;;;;;4998427;28;20182;-84
2022/07/11 07:03:30;;;;;;;3.03;1.70;;;22.30;99.90;;;;;;5012956;28;20551;-85
2022/07/11 07:05:56;;;;;;;1.20;1.10;;;22.90;99.90;;;;;;5008532;28;20433;-84
2022/07/11 07:08:26;;;;;;;2.10;1.30;;;23.10;99.90;;;;;;5007250;28;20471;-85
2022/07/11 07:10:52;;;;;;;1.93;1.67;;;22.60;99.90;;;;;;5003927;28;20484;-85
2022/07/11 07:13:20;;;;;;;2.13;1.30;;;22.70;99.90;;;;;;5006262;28;20447;-84
2022/07/11 07:15:46;;;;;;;3.10;2.10;;;23.60;99.90;;;;;;5010273;28;20878;-84
2022/07/11 07:18:12;;;;;;;2.57;1.60;;;;;;;;;;5010872;28;20472;-85
2022/07/11 07:20:38;;;;;;;2.63;1.97;;;;;;;;;;5009807;28;21066;-84
2022/07/11 07:23:04;;;;;;;2.13;1.50;;;25.20;99.90;;;;;;5007646;28;21141;-85
2022/07/11 07:25:29;;;;;;;6.00;1.87;;;25.90;99.90;;;;;;5008819;28;20433;-85
2022/07/11 07:27:55;;;;;;;1.83;1.60;;;;;;;;;;5015205;28;20215;-85
2022/07/11 07:30:21;;;;;;;2.27;1.90;;;;;;;;;;5002663;28;20206;-86
2022/07/11 07:32:47;;;;;;;2.13;1.53;;;28.60;99.90;;;;;;5008690;28;20439;-85
2022/07/11 07:35:13;;;;;;;2.80;2.50;;;;;;;;;;5004710;28;20510;-84
2022/07/11 07:37:38;;;;;;;4.07;2.90;;;32.00;92.60;;;;;;5009663;28;20555;-85
2022/07/11 07:40:05;;;;;;;3.00;2.50;;;33.80;90.20;;;;;;5014753;28;20536;-86
2022/07/11 07:42:31;;;;;;;6.33;3.30;;;;;;;;;;5006250;28;20195;-85
2022/07/11 07:44:56;;;;;;;6.43;3.50;;;;;;;;;;5015125;28;20460;-85
2022/07/11 07:47:22;;;;;;;5.20;4.27;;;;;;;;;;5011760;28;20427;-85
2022/07/11 07:49:48;;;;;;;5.50;5.00;;;;;;;;;;5005326;28;20843;-86
2022/07/11 07:52:14;;;;;;;18.43;10.00;;;39.30;53.80;;;;;;5007420;28;20433;-86
2022/07/11 07:54:40;;;;;;;7.27;6.87;;;39.50;50.60;;;;;;5009077;28;21268;-88
2022/07/11 07:57:06;;;;;;;7.90;7.50;;;;;;;;;;5009109;28;20204;-83
2022/07/11 07:59:32;;;;;;;7.97;7.57;;;41.00;45.60;;;;;;5002806;28;20278;-86
2022/07/11 08:01:58;;;;;;;9.67;8.97;;;;;;;;;;5011416;28;20434;-84
2022/07/11 08:04:23;;;;;;;10.90;10.10;;;40.20;42.60;;;;;;5008504;28;20432;-87
2022/07/11 08:06:49;;;;;;;12.10;11.00;;;40.00;42.90;;;;;;5005951;28;20665;-83
2022/07/11 08:09:15;;;;;;;12.83;11.80;;;;;;;;;;5008368;28;20220;-82
2022/07/11 08:11:40;;;;;;;11.77;10.63;;;36.20;44.20;;;;;;5034759;22;20231;-81
2022/07/11 08:14:07;;;;;;;9.20;8.50;;;33.90;50.10;;;;;;5017766;28;20439;-81
2022/07/11 08:16:33;;;;;;;9.10;8.50;;;34.00;50.70;;;;;;5017242;28;20182;-81
2022/07/11 08:19:01;;;;;;;10.90;10.20;;;36.10;50.10;;;;;;5018535;28;20510;-80
2022/07/11 08:21:27;;;;;;;9.30;8.70;;;37.20;44.80;;;;;;5027296;28;21322;-81
2022/07/11 08:23:54;;;;;;;8.53;8.13;;;37.20;45.40;;;;;;5020085;28;20460;-81
2022/07/11 08:26:21;;;;;;;9.07;8.57;;;36.80;45.40;;;;;;5021297;28;20605;-81
2022/07/11 08:28:46;;;;;;;9.87;8.50;;;36.10;47.60;;;;;;5017801;28;20461;-81
2022/07/11 08:31:12;;;;;;;8.57;8.17;;;37.30;46.00;;;;;;5019206;28;20438;-81
2022/07/11 08:33:37;;;;;;;10.10;9.40;;;39.00;44.10;;;;;;5019630;28;20947;-80
2022/07/11 08:36:03;;;;;;;9.93;9.40;;;39.20;42.50;;;;;;5027974;28;20212;-81
2022/07/11 08:38:29;;;;;;;9.10;8.50;;;38.00;43.40;;;;;;5020725;28;20214;-81
2022/07/11 08:40:54;;;;;;;10.73;10.00;;;37.50;43.70;;;;;;5020688;28;20531;-81
2022/07/11 08:43:26;;;;;;;9.73;9.10;;;36.80;43.20;;;;;;5019706;28;20184;-81
2022/07/11 08:45:54;;;;;;;11.37;10.27;;;36.70;43.30;;;;;;5019027;28;20217;-81
2022/07/11 08:48:20;;;;;;;10.80;10.10;;;;;;;;;;5016870;28;20493;-81
2022/07/11 08:50:46;;;;;;;9.97;9.57;;;37.70;42.40;;;;;;5021609;28;20432;-80
2022/07/11 08:53:13;;;;;;;10.53;10.03;;;40.00;41.60;;;;;;5027505;28;20443;-80
2022/07/11 08:55:39;;;;;;;10.10;9.50;;;40.00;40.40;;;;;;5025692;28;20831;-80
2022/07/11 08:58:07;;;;;;;13.23;12.37;;;38.60;41.50;;;;;;5024194;28;20502;-81
2022/07/11 09:00:33;;;;;;;10.27;9.60;;;36.00;42.70;;;;;;5022447;28;20438;-82
2022/07/11 09:03:00;;;;;;;9.10;8.70;;;35.20;45.80;;;;;;5024719;28;20440;-80
2022/07/11 09:05:27;;;;;;;11.23;10.20;;;34.10;47.00;;;;;;5026552;28;20464;-82
2022/07/11 09:07:52;;;;;;;7.80;7.30;;;32.40;48.30;;;;;;5021580;28;20753;-82
2022/07/11 09:10:18;;;;;;;5.07;4.77;;;29.20;51.50;;;;;;5022407;28;20455;-80
2022/07/11 09:13:04;;;;;;;4.63;4.27;;;28.30;56.40;;;;;;5025354;28;20261;-79
2022/07/11 09:15:44;;;;;;;4.80;3.90;;;27.70;58.50;;;;;;5020097;28;20283;-78
2022/07/11 09:18:25;;;;;;;6.30;4.10;;;26.90;60.30;;;;;;5019568;28;20614;-80
2022/07/11 09:26:21;;;;;;;4.27;3.20;;;25.80;70.80;;;;;;5025161;28;20461;-81
2022/07/11 09:29:05;;;;;;;3.37;3.10;;;26.40;71.80;;;;;;5021911;28;20442;-81
2022/07/11 09:31:32;;;;;;;6.60;4.10;;;26.50;71.50;;;;;;5022437;28;20593;-81
2022/07/11 09:34:14;;;;;;;4.50;3.47;;;26.90;70.20;;;;;;5022212;28;20866;-79
2022/07/11 09:36:46;;;;;;;5.90;4.30;;;27.70;69.40;;;;;;5024123;28;21159;-80
2022/07/11 09:39:17;;;;;;;3.43;3.13;;;27.00;69.10;;;;;;5026327;28;20476;-80
2022/07/11 09:41:44;;;;;;;8.03;3.77;;;27.00;71.20;;;;;;5024503;28;20449;-80
2022/07/11 09:44:28;;;;;;;4.90;3.63;;;26.80;72.10;;;;;;5024077;28;20520;-79
2022/07/11 09:46:54;;;;;;;4.20;3.00;;;26.90;73.00;;;;;;5017578;23;21112;-82
2022/07/11 09:49:34;;;;;;;3.80;3.00;;;27.70;72.60;;;;;;4998511;28;20484;-82
2022/07/11 09:52:13;;;;;;;4.47;3.00;;;27.40;70.70;;;;;;4999097;28;20529;-81
2022/07/11 09:55:01;;;;;;;3.90;3.43;;;27.30;69.10;;;;;;5000505;28;20509;-80
2022/07/11 09:57:36;;;;;;;4.00;3.30;;;27.10;70.40;;;;;;4980264;28;20490;-82
2022/07/11 10:00:05;;;;;;;3.43;3.13;;;26.90;72.00;;;;;;4982026;28;20442;-81
2022/07/11 10:02:30;;;;;;;4.50;3.37;;;27.50;72.00;;;;;;4982001;28;20973;-82
2022/07/11 10:04:59;;;;;;;4.43;3.63;;;26.90;72.10;;;;;;4981423;28;20437;-80
2022/07/11 10:07:25;;;;;;;3.27;2.97;;;26.50;74.30;;;;;;4981795;28;20432;-79
2022/07/11 10:09:50;;;;;;;3.00;2.37;;;25.80;75.70;;;;;;4983544;28;20448;-80
2022/07/11 10:12:17;;;;;;;9.13;2.40;;;25.60;73.70;;;;;;4978776;28;20437;-81
2022/07/11 10:14:43;;;;;;;4.30;2.90;;;25.30;75.70;;;;;;4982230;28;20188;-81
2022/07/11 10:17:37;;;;;;;3.50;2.03;;;25.20;74.30;;;;;;4977148;28;20478;-83
2022/07/11 10:20:31;;;;;;;2.80;2.20;;;25.40;74.60;;;;;;4975339;28;20990;-81
2022/07/11 10:23:22;;;;;;;3.30;3.00;;;25.30;73.00;;;;;;4970431;28;21184;-80
2022/07/11 10:26:20;;;;;;;3.40;3.03;;;25.10;76.30;;;;;;4972437;28;20886;-81
2022/07/11 10:28:52;;;;;;;5.03;3.10;;;25.80;75.60;;;;;;4973991;28;20599;-80
2022/07/11 10:31:25;;;;;;;3.33;2.57;;;26.40;74.90;;;;;;4979531;28;20430;-81
2022/07/11 10:34:05;;;;;;;3.00;2.57;;;26.10;75.60;;;;;;4970890;28;20440;-79
2022/07/11 10:36:33;;;;;;;2.70;2.50;;;25.80;76.70;;;;;;4974473;28;21032;-81
2022/07/11 10:39:24;;;;;;;2.80;2.40;;;26.50;79.80;;;;;;4979197;28;20446;-81
2022/07/11 10:41:51;;;;;;;3.60;2.20;;;26.50;75.00;;;;;;4976282;28;20546;-80
2022/07/11 10:44:17;;;;;;;3.83;2.60;;;26.40;78.20;;;;;;4977398;28;20428;-81
2022/07/11 10:46:43;;;;;;;2.70;2.47;;;26.30;78.00;;;;;;4979180;28;20475;-79
2022/07/11 10:49:12;;;;;;;4.47;2.87;;;25.80;75.70;;;;;;4993395;28;20945;-81
2022/07/11 10:51:41;;;;;;;7.63;3.20;;;25.30;78.50;;;;;;4982522;28;20431;-80
2022/07/11 10:54:37;;;;;;;2.67;2.47;;;25.50;77.80;;;;;;4978866;28;20447;-80
2022/07/11 10:57:28;;;;;;;3.17;2.43;;;25.60;79.70;;;;;;4958444;28;20481;-80
2022/07/11 11:00:07;;;;;;;3.80;3.10;;;26.00;76.60;;;;;;4978478;28;20450;-80
2022/07/11 11:02:59;;;;;;;4.90;2.73;;;26.00;76.90;;;;;;4982243;28;20463;-80
2022/07/11 11:05:49;;;;;;;2.60;2.40;;;26.40;77.30;;;;;;4975583;28;20461;-80
2022/07/11 11:08:35;;;;;;;3.63;2.70;;;26.50;75.70;;;;;;4977699;28;20515;-79
2022/07/11 11:11:04;;;;;;;3.20;2.90;;;26.60;77.30;;;;;;4976454;28;20527;-80
2022/07/11 11:13:30;;;;;;;3.43;3.13;;;27.30;79.40;;;;;;4978450;28;20559;-82
2022/07/11 11:15:58;;;;;;;4.40;3.30;;;27.70;75.30;;;;;;4979425;28;21028;-82
2022/07/11 11:18:24;;;;;;;3.70;3.37;;;27.70;74.40;;;;;;4978838;28;21428;-81
2022/07/11 11:21:07;;;;;;;5.43;3.20;;;27.30;73.90;;;;;;4990899;28;20430;-81
2022/07/11 11:23:35;;;;;;;4.57;2.83;;;26.90;75.80;;;;;;4979489;28;20184;-81
2022/07/11 11:26:12;;;;;;;3.50;3.00;;;27.00;76.70;;;;;;4977855;28;21039;-81
2022/07/11 11:28:55;;;;;;;6.83;3.27;;;26.50;77.80;;;;;;4975174;28;20438;-82
2022/07/11 11:31:21;;;;;;;6.63;3.40;;;26.50;78.40;;;;;;4978177;28;20826;-82
2022/07/11 11:33:47;;;;;;;4.17;2.80;;;26.70;78.00;;;;;;4979067;28;20923;-82
2022/07/11 11:36:16;;;;;;;6.20;3.67;;;26.40;79.00;;;;;;4997599;28;21055;-82
2022/07/11 11:38:46;;;;;;;4.87;3.17;;;27.00;81.50;;;;;;4975860;28;20869;-82
2022/07/11 11:41:14;;;;;;;2.83;2.63;;;27.00;77.50;;;;;;4975997;28;20661;-80
2022/07/11 11:43:45;;;;;;;3.70;3.03;;;27.10;75.30;;;;;;4979333;28;20467;-82
2022/07/11 11:46:12;;;;;;;9.40;3.00;;;27.20;77.20;;;;;;4977230;28;20630;-80
2022/07/11 11:48:38;;;;;;;4.03;3.37;;;27.50;76.70;;;;;;4976192;28;20434;-81
2022/07/11 11:51:05;;;;;;;3.50;2.70;;;26.70;74.40;;;;;;4972765;28;20444;-81
2022/07/11 11:53:41;;;;;;;3.57;3.23;;;26.70;75.10;;;;;;4980801;28;20449;-80
2022/07/11 11:56:36;;;;;;;3.00;2.80;;;26.90;76.10;;;;;;4978913;28;20492;-82
2022/07/11 11:59:15;;;;;;;3.70;2.57;;;27.00;75.20;;;;;;4990129;28;20468;-84
2022/07/11 12:01:43;;;;;;;3.33;2.90;;;26.80;74.00;;;;;;4970327;28;20432;-82
2022/07/11 12:04:11;;;;;;;5.47;3.10;;;27.20;75.60;;;;;;4966751;28;20438;-82
2022/07/11 12:06:42;;;;;;;4.23;2.93;;;28.00;73.00;;;;;;4966591;28;20819;-82
2022/07/11 12:09:16;;;;;;;5.87;2.27;;;28.40;72.50;;;;;;4977209;28;20434;-81
2022/07/11 12:11:44;;;;;;;3.00;2.80;;;28.30;72.10;;;;;;4977568;28;20434;-81
2022/07/11 12:14:12;;;;;;;3.40;3.10;;;28.40;71.70;;;;;;4981084;28;20427;-81
2022/07/11 12:16:42;;;;;;;3.50;2.70;;;28.00;70.20;;;;;;4975155;28;20458;-81
2022/07/11 12:19:23;;;;;;;5.80;3.27;;;27.80;73.80;;;;;;4972721;28;20435;-83
2022/07/11 12:21:51;;;;;;;5.17;3.60;;;27.60;71.10;;;;;;4972210;28;20576;-81
2022/07/11 12:24:20;;;;;;;5.97;3.30;;;27.80;72.10;;;;;;4970606;28;20546;-80
2022/07/11 12:26:46;;;;;;;4.20;2.97;;;28.40;70.50;;;;;;4971853;28;20449;-83
2022/07/11 12:29:19;;;;;;;3.67;3.03;;;28.50;68.70;;;;;;4964386;28;20507;-81
2022/07/11 12:31:58;;;;;;;8.93;4.07;;;27.80;70.40;;;;;;4966861;28;20430;-83
2022/07/11 12:34:27;;;;;;;3.93;3.23;;;26.90;73.90;;;;;;4968759;28;21518;-82
2022/07/11 12:37:07;;;;;;;3.70;3.30;;;26.90;77.20;;;;;;4975855;28;20460;-82
2022/07/11 12:39:41;;;;;;;4.40;3.27;;;26.80;75.10;;;;;;4974750;28;20437;-81
2022/07/11 12:42:24;;;;;;;8.07;2.97;;;26.30;74.70;;;;;;4974511;28;20509;-81
2022/07/11 12:45:11;;;;;;;3.97;3.20;;;25.40;77.00;;;;;;4974321;28;20794;-82
2022/07/11 12:47:40;;;;;;;4.83;3.17;;;25.10;79.20;;;;;;4973599;28;21017;-80
2022/07/11 12:50:20;;;;;;;3.77;2.63;;;24.90;80.80;;;;;;4973025;28;20438;-81
2022/07/11 12:52:48;;;;;;;3.40;3.10;;;24.90;82.80;;;;;;4976131;28;20465;-80
2022/07/11 12:55:21;;;;;;;5.10;2.80;;;24.90;82.60;;;;;;4974413;28;20462;-82
2022/07/11 12:58:09;;;;;;;5.00;3.33;;;25.30;83.20;;;;;;4972424;28;20474;-81
2022/07/11 13:00:36;;;;;;;3.10;2.80;;;25.70;81.60;;;;;;4974286;28;20793;-83
2022/07/11 13:03:03;;;;;;;3.83;2.77;;;25.90;80.20;;;;;;4974508;28;20432;-81
2022/07/11 13:05:30;;;;;;;7.10;3.30;;;26.20;79.90;;;;;;4971732;28;20450;-81